sensor_id;sensor_type;location;lat;lon;timestamp;pressure;altitude;pressure_sealevel;temperature;humidity
63500;BME280;49654;51.142;14.924;2023-03-15T00:01:34;98417.34;;;2.58;75.01
63500;BME280;49654;51.142;14.924;2023-03-15T00:04:01;98402.13;;;2.47;74.80
63500;BME280;49654;51.142;14.924;2023-03-15T00:06:30;98407.53;;;2.44;74.29
63500;BME280;49654;51.142;14.924;2023-03-15T00:08:58;98420.34;;;2.54;73.85
63500;BME280;49654;51.142;14.924;2023-03-15T00:11:27;98423.50;;;2.65;73.53
63500;BME280;49654;51.142;14.924;2023-03-15T00:13:56;98420.97;;;2.56;74.09
63500;BME280;49654;51.142;14.924;2023-03-15T00:16:24;98431.13;;;2.47;74.48
63500;BME280;49654;51.142;14.924;2023-03-15T00:18:52;98434.13;;;2.43;74.50
63500;BME280;49654;51.142;14.924;2023-03-15T00:21:20;98388.63;;;2.17;74.50
63500;BME280;49654;51.142;14.924;2023-03-15T00:23:47;98453.97;;;2.41;74.65
63500;BME280;49654;51.142;14.924;2023-03-15T00:26:15;98445.78;;;2.28;74.82
63500;BME280;49654;51.142;14.924;2023-03-15T00:28:42;98444.13;;;2.26;74.60
63500;BME280;49654;51.142;14.924;2023-03-15T00:31:14;98449.69;;;2.22;74.51
63500;BME280;49654;51.142;14.924;2023-03-15T00:33:42;98457.38;;;2.22;73.98
63500;BME280;49654;51.142;14.924;2023-03-15T00:36:10;98461.28;;;2.16;73.79
63500;BME280;49654;51.142;14.924;2023-03-15T00:38:39;98466.97;;;2.20;73.45
63500;BME280;49654;51.142;14.924;2023-03-15T00:41:07;98465.22;;;2.11;73.75
63500;BME280;49654;51.142;14.924;2023-03-15T00:43:34;98466.16;;;2.10;73.67
63500;BME280;49654;51.142;14.924;2023-03-15T00:46:02;98478.44;;;1.96;74.52
63500;BME280;49654;51.142;14.924;2023-03-15T00:48:31;98474.00;;;1.98;73.83
63500;BME280;49654;51.142;14.924;2023-03-15T00:51:03;98475.75;;;1.98;73.90
63500;BME280;49654;51.142;14.924;2023-03-15T00:53:31;98472.13;;;1.81;74.84
63500;BME280;49654;51.142;14.924;2023-03-15T00:56:03;98468.34;;;1.75;74.46
63500;BME280;49654;51.142;14.924;2023-03-15T00:58:30;98499.59;;;1.79;74.17
63500;BME280;49654;51.142;14.924;2023-03-15T01:00:56;98499.34;;;1.72;75.54
63500;BME280;49654;51.142;14.924;2023-03-15T01:03:23;98486.81;;;1.50;75.71
63500;BME280;49654;51.142;14.924;2023-03-15T01:05:52;98502.69;;;1.54;76.27
63500;BME280;49654;51.142;14.924;2023-03-15T01:08:19;98515.22;;;1.47;76.18
63500;BME280;49654;51.142;14.924;2023-03-15T01:10:45;98515.78;;;1.50;75.98
63500;BME280;49654;51.142;14.924;2023-03-15T01:13:12;98519.38;;;1.48;76.60
63500;BME280;49654;51.142;14.924;2023-03-15T01:15:39;98523.38;;;1.31;78.07
63500;BME280;49654;51.142;14.924;2023-03-15T01:18:06;98517.47;;;1.31;77.72
63500;BME280;49654;51.142;14.924;2023-03-15T01:20:33;98498.75;;;1.20;77.68
63500;BME280;49654;51.142;14.924;2023-03-15T01:23:01;98527.31;;;1.45;77.93
63500;BME280;49654;51.142;14.924;2023-03-15T01:25:28;98530.56;;;1.37;77.56
63500;BME280;49654;51.142;14.924;2023-03-15T01:27:55;98535.53;;;1.29;77.82
63500;BME280;49654;51.142;14.924;2023-03-15T01:30:22;98536.97;;;1.32;78.10
63500;BME280;49654;51.142;14.924;2023-03-15T01:32:48;98536.47;;;1.38;76.94
63500;BME280;49654;51.142;14.924;2023-03-15T01:35:16;98534.97;;;1.35;76.88
63500;BME280;49654;51.142;14.924;2023-03-15T01:37:43;98530.44;;;1.48;75.63
63500;BME280;49654;51.142;14.924;2023-03-15T01:40:13;98534.78;;;1.67;75.00
63500;BME280;49654;51.142;14.924;2023-03-15T01:42:50;98529.50;;;1.79;74.21
63500;BME280;49654;51.142;14.924;2023-03-15T01:45:52;98530.06;;;1.72;75.10
63500;BME280;49654;51.142;14.924;2023-03-15T01:48:22;98531.94;;;1.70;75.14
63500;BME280;49654;51.142;14.924;2023-03-15T01:50:51;98518.59;;;1.67;73.79
63500;BME280;49654;51.142;14.924;2023-03-15T01:53:20;98537.34;;;1.77;73.85
63500;BME280;49654;51.142;14.924;2023-03-15T01:55:49;98536.13;;;1.81;73.83
63500;BME280;49654;51.142;14.924;2023-03-15T01:58:18;98539.09;;;1.86;73.57
63500;BME280;49654;51.142;14.924;2023-03-15T02:00:46;98531.16;;;1.89;73.91
63500;BME280;49654;51.142;14.924;2023-03-15T02:03:16;98531.69;;;2.03;74.04
63500;BME280;49654;51.142;14.924;2023-03-15T02:05:47;98504.06;;;1.87;73.92
63500;BME280;49654;51.142;14.924;2023-03-15T02:08:21;98535.59;;;2.07;73.66
63500;BME280;49654;51.142;14.924;2023-03-15T02:10:52;98538.97;;;2.07;72.91
63500;BME280;49654;51.142;14.924;2023-03-15T02:13:22;98544.88;;;2.08;73.42
63500;BME280;49654;51.142;14.924;2023-03-15T02:15:51;98543.81;;;2.10;73.92
63500;BME280;49654;51.142;14.924;2023-03-15T02:18:19;98525.34;;;2.07;73.04
63500;BME280;49654;51.142;14.924;2023-03-15T02:20:50;98512.53;;;2.07;73.46
63500;BME280;49654;51.142;14.924;2023-03-15T02:23:22;98546.47;;;2.38;72.23
63500;BME280;49654;51.142;14.924;2023-03-15T02:25:56;98546.19;;;2.31;73.09
63500;BME280;49654;51.142;14.924;2023-03-15T02:28:28;98549.16;;;2.26;72.32
63500;BME280;49654;51.142;14.924;2023-03-15T02:30:56;98548.78;;;2.21;73.48
63500;BME280;49654;51.142;14.924;2023-03-15T02:33:26;98550.94;;;2.16;73.69
63500;BME280;49654;51.142;14.924;2023-03-15T02:35:54;98551.34;;;2.12;74.26
63500;BME280;49654;51.142;14.924;2023-03-15T02:38:21;98545.94;;;2.05;75.21
63500;BME280;49654;51.142;14.924;2023-03-15T02:40:50;98547.03;;;2.12;75.72
63500;BME280;49654;51.142;14.924;2023-03-15T02:43:21;98541.09;;;2.21;74.67
63500;BME280;49654;51.142;14.924;2023-03-15T02:45:51;98555.53;;;2.32;72.70
63500;BME280;49654;51.142;14.924;2023-03-15T02:48:19;98539.75;;;2.27;72.90
63500;BME280;49654;51.142;14.924;2023-03-15T02:50:45;98548.94;;;2.10;73.42
63500;BME280;49654;51.142;14.924;2023-03-15T02:53:12;98556.91;;;1.97;73.92
63500;BME280;49654;51.142;14.924;2023-03-15T02:55:39;98554.31;;;1.88;73.19
63500;BME280;49654;51.142;14.924;2023-03-15T02:58:06;98560.78;;;1.82;73.43
63500;BME280;49654;51.142;14.924;2023-03-15T03:00:33;98567.09;;;1.78;73.61
63500;BME280;49654;51.142;14.924;2023-03-15T03:03:02;98573.16;;;1.67;72.70
63500;BME280;49654;51.142;14.924;2023-03-15T03:05:28;98575.34;;;1.72;73.58
63500;BME280;49654;51.142;14.924;2023-03-15T03:07:55;98582.06;;;1.63;73.57
63500;BME280;49654;51.142;14.924;2023-03-15T03:10:23;98594.56;;;1.66;73.19
63500;BME280;49654;51.142;14.924;2023-03-15T03:12:50;98605.50;;;1.68;72.80
63500;BME280;49654;51.142;14.924;2023-03-15T03:15:18;98602.47;;;1.54;73.22
63500;BME280;49654;51.142;14.924;2023-03-15T03:17:45;98613.34;;;1.36;74.65
63500;BME280;49654;51.142;14.924;2023-03-15T03:20:14;98611.31;;;1.30;74.86
63500;BME280;49654;51.142;14.924;2023-03-15T03:22:41;98618.44;;;1.36;74.70
63500;BME280;49654;51.142;14.924;2023-03-15T03:25:10;98621.78;;;1.27;74.78
63500;BME280;49654;51.142;14.924;2023-03-15T03:27:37;98634.41;;;1.19;75.02
63500;BME280;49654;51.142;14.924;2023-03-15T03:30:06;98628.00;;;1.24;74.77
63500;BME280;49654;51.142;14.924;2023-03-15T03:32:33;98635.09;;;1.21;74.75
63500;BME280;49654;51.142;14.924;2023-03-15T03:35:00;98625.09;;;1.08;75.59
63500;BME280;49654;51.142;14.924;2023-03-15T03:37:29;98634.69;;;1.16;75.78
63500;BME280;49654;51.142;14.924;2023-03-15T03:39:56;98608.19;;;0.96;75.60
63500;BME280;49654;51.142;14.924;2023-03-15T03:42:23;98643.75;;;1.30;75.70
63500;BME280;49654;51.142;14.924;2023-03-15T03:44:50;98639.72;;;1.37;75.63
63500;BME280;49654;51.142;14.924;2023-03-15T03:47:19;98649.28;;;1.35;75.44
63500;BME280;49654;51.142;14.924;2023-03-15T03:49:46;98650.06;;;1.25;76.03
63500;BME280;49654;51.142;14.924;2023-03-15T03:52:13;98653.28;;;1.28;76.40
63500;BME280;49654;51.142;14.924;2023-03-15T03:54:41;98629.22;;;0.99;76.73
63500;BME280;49654;51.142;14.924;2023-03-15T03:57:09;98662.53;;;1.19;76.64
63500;BME280;49654;51.142;14.924;2023-03-15T03:59:36;98667.66;;;1.19;76.54
63500;BME280;49654;51.142;14.924;2023-03-15T04:02:03;98661.56;;;1.10;76.12
63500;BME280;49654;51.142;14.924;2023-03-15T04:04:30;98665.06;;;1.09;75.93
63500;BME280;49654;51.142;14.924;2023-03-15T04:06:57;98673.31;;;1.22;75.47
63500;BME280;49654;51.142;14.924;2023-03-15T04:09:24;98686.69;;;1.26;75.75
63500;BME280;49654;51.142;14.924;2023-03-15T04:11:52;98686.25;;;1.21;75.54
63500;BME280;49654;51.142;14.924;2023-03-15T04:14:19;98691.41;;;1.31;75.21
63500;BME280;49654;51.142;14.924;2023-03-15T04:16:46;98703.06;;;1.23;74.99
63500;BME280;49654;51.142;14.924;2023-03-15T04:19:13;98706.19;;;1.27;75.15
63500;BME280;49654;51.142;14.924;2023-03-15T04:21:40;98710.25;;;1.30;74.86
63500;BME280;49654;51.142;14.924;2023-03-15T04:24:11;98710.69;;;1.35;74.83
63500;BME280;49654;51.142;14.924;2023-03-15T04:26:39;98711.09;;;1.40;74.41
63500;BME280;49654;51.142;14.924;2023-03-15T04:29:09;98718.63;;;1.62;73.41
63500;BME280;49654;51.142;14.924;2023-03-15T04:31:36;98713.50;;;1.62;73.18
63500;BME280;49654;51.142;14.924;2023-03-15T04:34:04;98677.59;;;1.43;73.49
63500;BME280;49654;51.142;14.924;2023-03-15T04:36:31;98688.13;;;1.49;73.53
63500;BME280;49654;51.142;14.924;2023-03-15T04:38:58;98723.72;;;1.62;74.12
63500;BME280;49654;51.142;14.924;2023-03-15T04:41:29;98723.06;;;1.60;74.52
63500;BME280;49654;51.142;14.924;2023-03-15T04:43:56;98726.13;;;1.54;74.83
63500;BME280;49654;51.142;14.924;2023-03-15T04:46:24;98723.69;;;1.53;75.06
63500;BME280;49654;51.142;14.924;2023-03-15T04:48:51;98727.41;;;1.39;75.77
63500;BME280;49654;51.142;14.924;2023-03-15T04:51:18;98731.53;;;1.30;76.35
63500;BME280;49654;51.142;14.924;2023-03-15T04:53:44;98732.41;;;1.19;76.56
63500;BME280;49654;51.142;14.924;2023-03-15T04:56:11;98738.78;;;1.04;76.84
63500;BME280;49654;51.142;14.924;2023-03-15T04:58:38;98749.00;;;1.04;76.50
63500;BME280;49654;51.142;14.924;2023-03-15T05:01:05;98754.75;;;1.17;75.91
63500;BME280;49654;51.142;14.924;2023-03-15T05:03:33;98753.13;;;1.16;76.09
63500;BME280;49654;51.142;14.924;2023-03-15T05:06:01;98712.06;;;0.97;75.45
63500;BME280;49654;51.142;14.924;2023-03-15T05:08:32;98771.13;;;1.36;75.47
63500;BME280;49654;51.142;14.924;2023-03-15T05:10:59;98660.22;;;0.64;75.56
63500;BME280;49654;51.142;14.924;2023-03-15T05:13:26;98769.53;;;1.35;75.20
63500;BME280;49654;51.142;14.924;2023-03-15T05:15:53;98659.88;;;0.58;75.08
63500;BME280;49654;51.142;14.924;2023-03-15T05:18:20;98780.00;;;1.32;75.06
63500;BME280;49654;51.142;14.924;2023-03-15T05:20:48;98710.31;;;0.77;74.77
63500;BME280;49654;51.142;14.924;2023-03-15T05:23:15;98784.88;;;1.35;74.19
63500;BME280;49654;51.142;14.924;2023-03-15T05:25:42;98791.38;;;1.39;73.94
63500;BME280;49654;51.142;14.924;2023-03-15T05:28:09;98786.38;;;1.37;73.55
63500;BME280;49654;51.142;14.924;2023-03-15T05:30:36;98787.88;;;1.40;72.22
63500;BME280;49654;51.142;14.924;2023-03-15T05:33:03;98761.59;;;1.38;71.46
63500;BME280;49654;51.142;14.924;2023-03-15T05:35:30;98784.63;;;1.59;70.60
63500;BME280;49654;51.142;14.924;2023-03-15T05:37:58;98723.25;;;1.17;71.31
63500;BME280;49654;51.142;14.924;2023-03-15T05:40:26;98807.88;;;1.77;70.28
63500;BME280;49654;51.142;14.924;2023-03-15T05:42:54;98705.63;;;1.03;69.93
63500;BME280;49654;51.142;14.924;2023-03-15T05:45:21;98816.19;;;1.69;70.52
63500;BME280;49654;51.142;14.924;2023-03-15T05:47:48;98810.13;;;1.49;71.13
63500;BME280;49654;51.142;14.924;2023-03-15T05:50:16;98818.00;;;1.57;71.23
63500;BME280;49654;51.142;14.924;2023-03-15T05:52:43;98825.63;;;1.47;71.39
63500;BME280;49654;51.142;14.924;2023-03-15T05:55:11;98824.13;;;1.45;71.93
63500;BME280;49654;51.142;14.924;2023-03-15T05:57:38;98816.63;;;1.53;72.19
63500;BME280;49654;51.142;14.924;2023-03-15T06:00:06;98822.75;;;1.41;72.77
63500;BME280;49654;51.142;14.924;2023-03-15T06:02:34;98826.34;;;1.17;74.18
63500;BME280;49654;51.142;14.924;2023-03-15T06:05:01;98829.66;;;1.08;74.92
63500;BME280;49654;51.142;14.924;2023-03-15T06:07:28;98839.50;;;1.13;75.38
63500;BME280;49654;51.142;14.924;2023-03-15T06:09:55;98800.63;;;0.98;75.49
63500;BME280;49654;51.142;14.924;2023-03-15T06:12:24;98844.66;;;1.55;74.20
63500;BME280;49654;51.142;14.924;2023-03-15T06:14:51;98739.59;;;1.05;74.07
63500;BME280;49654;51.142;14.924;2023-03-15T06:17:17;98806.09;;;1.46;73.62
63500;BME280;49654;51.142;14.924;2023-03-15T06:19:44;98847.38;;;1.84;72.99
63500;BME280;49654;51.142;14.924;2023-03-15T06:22:12;98870.41;;;1.84;72.76
63500;BME280;49654;51.142;14.924;2023-03-15T06:24:39;98867.63;;;1.87;72.49
63500;BME280;49654;51.142;14.924;2023-03-15T06:27:06;98869.44;;;1.75;73.25
63500;BME280;49654;51.142;14.924;2023-03-15T06:29:34;98875.47;;;1.95;72.80
63500;BME280;49654;51.142;14.924;2023-03-15T06:32:01;98885.78;;;2.05;71.81
63500;BME280;49654;51.142;14.924;2023-03-15T06:34:28;98889.78;;;1.97;72.05
63500;BME280;49654;51.142;14.924;2023-03-15T06:36:55;98891.69;;;2.05;71.07
63500;BME280;49654;51.142;14.924;2023-03-15T06:39:22;98897.50;;;2.28;70.36
63500;BME280;49654;51.142;14.924;2023-03-15T06:41:50;98903.84;;;2.34;69.75
63500;BME280;49654;51.142;14.924;2023-03-15T06:44:18;98908.09;;;2.44;70.27
63500;BME280;49654;51.142;14.924;2023-03-15T06:46:47;98869.53;;;2.15;70.35
63500;BME280;49654;51.142;14.924;2023-03-15T06:49:14;98915.59;;;2.67;70.06
63500;BME280;49654;51.142;14.924;2023-03-15T06:51:41;98907.25;;;2.74;70.19
63500;BME280;49654;51.142;14.924;2023-03-15T06:54:10;98919.34;;;3.13;68.27
63500;BME280;49654;51.142;14.924;2023-03-15T06:56:37;98891.22;;;2.92;67.63
63500;BME280;49654;51.142;14.924;2023-03-15T06:59:04;98930.00;;;3.18;68.16
63500;BME280;49654;51.142;14.924;2023-03-15T07:01:32;98934.75;;;3.32;67.86
63500;BME280;49654;51.142;14.924;2023-03-15T07:04:00;98925.28;;;3.33;67.47
63500;BME280;49654;51.142;14.924;2023-03-15T07:06:27;98935.69;;;3.31;66.53
63500;BME280;49654;51.142;14.924;2023-03-15T07:08:54;98942.31;;;3.34;67.12
63500;BME280;49654;51.142;14.924;2023-03-15T07:11:21;98944.22;;;3.32;67.49
63500;BME280;49654;51.142;14.924;2023-03-15T07:13:47;98944.47;;;3.29;66.76
63500;BME280;49654;51.142;14.924;2023-03-15T07:16:15;98948.53;;;3.31;65.81
63500;BME280;49654;51.142;14.924;2023-03-15T07:18:41;98936.50;;;3.32;66.68
63500;BME280;49654;51.142;14.924;2023-03-15T07:21:10;98944.91;;;3.53;65.01
63500;BME280;49654;51.142;14.924;2023-03-15T07:23:37;98943.66;;;3.76;64.36
63500;BME280;49654;51.142;14.924;2023-03-15T07:26:04;98866.16;;;3.34;62.91
63500;BME280;49654;51.142;14.924;2023-03-15T07:28:30;98923.81;;;3.79;63.18
63500;BME280;49654;51.142;14.924;2023-03-15T07:30:59;98935.41;;;3.92;63.80
63500;BME280;49654;51.142;14.924;2023-03-15T07:33:27;98931.88;;;3.93;62.69
63500;BME280;49654;51.142;14.924;2023-03-15T07:35:54;98932.16;;;4.00;64.26
63500;BME280;49654;51.142;14.924;2023-03-15T07:38:24;98915.66;;;3.93;62.07
63500;BME280;49654;51.142;14.924;2023-03-15T07:40:51;98922.50;;;4.21;65.11
63500;BME280;49654;51.142;14.924;2023-03-15T07:43:18;98908.97;;;4.19;61.88
63500;BME280;49654;51.142;14.924;2023-03-15T07:45:46;98931.72;;;4.24;61.16
63500;BME280;49654;51.142;14.924;2023-03-15T07:48:12;98924.00;;;4.24;60.63
63500;BME280;49654;51.142;14.924;2023-03-15T07:50:40;98924.88;;;4.42;61.05
63500;BME280;49654;51.142;14.924;2023-03-15T07:53:07;98930.66;;;4.54;60.22
63500;BME280;49654;51.142;14.924;2023-03-15T07:55:35;98896.03;;;4.48;60.10
63500;BME280;49654;51.142;14.924;2023-03-15T07:58:02;98869.81;;;4.08;58.82
63500;BME280;49654;51.142;14.924;2023-03-15T08:00:31;98931.94;;;4.68;58.78
63500;BME280;49654;51.142;14.924;2023-03-15T08:02:58;98921.03;;;4.84;60.17
63500;BME280;49654;51.142;14.924;2023-03-15T08:05:25;98928.28;;;4.98;59.17
63500;BME280;49654;51.142;14.924;2023-03-15T08:07:52;98936.91;;;5.07;60.50
63500;BME280;49654;51.142;14.924;2023-03-15T08:10:19;98900.03;;;4.88;60.16
63500;BME280;49654;51.142;14.924;2023-03-15T08:12:47;98954.13;;;5.24;57.47
63500;BME280;49654;51.142;14.924;2023-03-15T08:15:14;98927.69;;;5.04;54.90
63500;BME280;49654;51.142;14.924;2023-03-15T08:17:41;98941.34;;;5.32;57.03
63500;BME280;49654;51.142;14.924;2023-03-15T08:20:10;98901.59;;;5.17;56.36
63500;BME280;49654;51.142;14.924;2023-03-15T08:22:39;98937.06;;;5.59;56.47
63500;BME280;49654;51.142;14.924;2023-03-15T08:25:10;98948.19;;;5.59;55.41
63500;BME280;49654;51.142;14.924;2023-03-15T08:27:38;98937.66;;;5.52;56.13
63500;BME280;49654;51.142;14.924;2023-03-15T08:30:07;98945.28;;;5.80;56.78
63500;BME280;49654;51.142;14.924;2023-03-15T08:32:35;98965.31;;;5.86;54.82
63500;BME280;49654;51.142;14.924;2023-03-15T08:35:03;98960.66;;;6.08;55.31
63500;BME280;49654;51.142;14.924;2023-03-15T08:37:30;98973.19;;;6.02;55.40
63500;BME280;49654;51.142;14.924;2023-03-15T08:39:57;98972.75;;;6.33;52.80
63500;BME280;49654;51.142;14.924;2023-03-15T08:42:29;98934.75;;;6.35;52.94
63500;BME280;49654;51.142;14.924;2023-03-15T08:44:56;98986.94;;;6.63;51.22
63500;BME280;49654;51.142;14.924;2023-03-15T08:47:25;98988.19;;;6.51;50.07
63500;BME280;49654;51.142;14.924;2023-03-15T08:49:52;98983.28;;;6.66;51.67
63500;BME280;49654;51.142;14.924;2023-03-15T08:52:19;98988.47;;;6.74;51.45
63500;BME280;49654;51.142;14.924;2023-03-15T08:54:46;98988.69;;;6.89;52.87
63500;BME280;49654;51.142;14.924;2023-03-15T08:57:14;99003.38;;;7.31;48.40
63500;BME280;49654;51.142;14.924;2023-03-15T08:59:41;99001.41;;;7.16;48.16
63500;BME280;49654;51.142;14.924;2023-03-15T09:02:09;99000.56;;;7.08;49.01
63500;BME280;49654;51.142;14.924;2023-03-15T09:04:38;98997.88;;;7.25;48.98
63500;BME280;49654;51.142;14.924;2023-03-15T09:07:04;99000.72;;;7.89;49.70
63500;BME280;49654;51.142;14.924;2023-03-15T09:09:31;98939.34;;;7.67;45.18
63500;BME280;49654;51.142;14.924;2023-03-15T09:11:59;99007.00;;;7.78;46.55
63500;BME280;49654;51.142;14.924;2023-03-15T09:14:26;99007.59;;;8.87;45.61
63500;BME280;49654;51.142;14.924;2023-03-15T09:16:53;99002.16;;;9.05;43.44
63500;BME280;49654;51.142;14.924;2023-03-15T09:19:20;99007.00;;;8.52;44.80
63500;BME280;49654;51.142;14.924;2023-03-15T09:21:48;99013.50;;;8.15;44.97
63500;BME280;49654;51.142;14.924;2023-03-15T09:24:16;99016.72;;;7.93;46.08
63500;BME280;49654;51.142;14.924;2023-03-15T09:26:43;99019.13;;;7.78;47.83
63500;BME280;49654;51.142;14.924;2023-03-15T09:29:09;99012.88;;;8.05;47.88
63500;BME280;49654;51.142;14.924;2023-03-15T09:31:36;99013.19;;;8.02;46.57
63500;BME280;49654;51.142;14.924;2023-03-15T09:34:03;99022.53;;;7.78;45.84
63500;BME280;49654;51.142;14.924;2023-03-15T09:36:31;99010.78;;;7.25;47.66
63500;BME280;49654;51.142;14.924;2023-03-15T09:38:59;99005.44;;;7.19;48.45
63500;BME280;49654;51.142;14.924;2023-03-15T09:41:40;99018.63;;;7.50;48.25
63500;BME280;49654;51.142;14.924;2023-03-15T09:44:15;99018.81;;;7.73;47.87
63500;BME280;49654;51.142;14.924;2023-03-15T09:46:56;99014.56;;;7.47;44.30
63500;BME280;49654;51.142;14.924;2023-03-15T09:49:32;99016.00;;;7.42;46.52
63500;BME280;49654;51.142;14.924;2023-03-15T09:52:11;99003.16;;;8.07;45.59
63500;BME280;49654;51.142;14.924;2023-03-15T09:54:43;99014.94;;;8.34;43.60
63500;BME280;49654;51.142;14.924;2023-03-15T09:57:14;99005.66;;;8.72;47.13
63500;BME280;49654;51.142;14.924;2023-03-15T09:59:45;98982.81;;;8.84;44.16
63500;BME280;49654;51.142;14.924;2023-03-15T10:02:17;99008.44;;;8.71;43.13
63500;BME280;49654;51.142;14.924;2023-03-15T10:04:48;99010.41;;;8.28;43.47
63500;BME280;49654;51.142;14.924;2023-03-15T10:07:17;99028.22;;;7.32;45.13
63500;BME280;49654;51.142;14.924;2023-03-15T10:09:45;99026.03;;;7.02;46.92
63500;BME280;49654;51.142;14.924;2023-03-15T10:12:15;99028.69;;;7.27;47.99
63500;BME280;49654;51.142;14.924;2023-03-15T10:14:58;99043.16;;;7.54;45.65
63500;BME280;49654;51.142;14.924;2023-03-15T10:17:36;99030.91;;;7.14;46.93
63500;BME280;49654;51.142;14.924;2023-03-15T10:20:11;98986.94;;;6.63;45.94
63500;BME280;49654;51.142;14.924;2023-03-15T10:22:44;99037.69;;;6.81;47.04
63500;BME280;49654;51.142;14.924;2023-03-15T10:25:17;99040.34;;;6.97;52.65
63500;BME280;49654;51.142;14.924;2023-03-15T10:27:49;99017.66;;;6.74;55.04
63500;BME280;49654;51.142;14.924;2023-03-15T10:30:20;99056.53;;;6.47;54.73
63500;BME280;49654;51.142;14.924;2023-03-15T10:32:51;99068.34;;;6.32;57.38
63500;BME280;49654;51.142;14.924;2023-03-15T10:35:20;99056.16;;;6.42;58.70
63500;BME280;49654;51.142;14.924;2023-03-15T10:37:47;99054.22;;;6.96;58.65
63500;BME280;49654;51.142;14.924;2023-03-15T10:40:40;99054.78;;;7.50;57.70
63500;BME280;49654;51.142;14.924;2023-03-15T10:43:18;99039.47;;;7.14;58.25
63500;BME280;49654;51.142;14.924;2023-03-15T10:45:46;99008.88;;;7.36;60.07
63500;BME280;49654;51.142;14.924;2023-03-15T10:48:23;99043.56;;;8.16;58.40
63500;BME280;49654;51.142;14.924;2023-03-15T10:50:50;99037.56;;;7.91;58.27
63500;BME280;49654;51.142;14.924;2023-03-15T10:53:18;99055.19;;;8.12;58.15
63500;BME280;49654;51.142;14.924;2023-03-15T10:55:48;99074.66;;;7.49;58.09
63500;BME280;49654;51.142;14.924;2023-03-15T10:58:21;99060.66;;;7.76;59.46
63500;BME280;49654;51.142;14.924;2023-03-15T11:00:53;99048.22;;;8.04;57.36
63500;BME280;49654;51.142;14.924;2023-03-15T11:03:25;99053.47;;;7.46;58.42
63500;BME280;49654;51.142;14.924;2023-03-15T11:05:53;99019.50;;;7.24;59.74
63500;BME280;49654;51.142;14.924;2023-03-15T11:08:22;98995.56;;;7.97;58.67
63500;BME280;49654;51.142;14.924;2023-03-15T11:10:57;99060.31;;;8.94;55.13
63500;BME280;49654;51.142;14.924;2023-03-15T11:13:25;99063.78;;;8.45;54.10
63500;BME280;49654;51.142;14.924;2023-03-15T11:15:58;99058.78;;;7.44;55.85
63500;BME280;49654;51.142;14.924;2023-03-15T11:18:34;99044.97;;;7.11;58.10
63500;BME280;49654;51.142;14.924;2023-03-15T11:21:04;99076.22;;;6.74;57.47
63500;BME280;49654;51.142;14.924;2023-03-15T11:23:35;98962.56;;;6.23;56.05
63500;BME280;49654;51.142;14.924;2023-03-15T11:26:04;99060.53;;;7.01;55.81
63500;BME280;49654;51.142;14.924;2023-03-15T11:28:34;98986.94;;;6.97;54.77
63500;BME280;49654;51.142;14.924;2023-03-15T11:31:02;99068.78;;;7.39;56.06
63500;BME280;49654;51.142;14.924;2023-03-15T11:33:37;99026.50;;;6.64;57.22
63500;BME280;49654;51.142;14.924;2023-03-15T11:36:12;98994.47;;;6.83;56.80
63500;BME280;49654;51.142;14.924;2023-03-15T11:38:43;99074.34;;;6.58;57.88
63500;BME280;49654;51.142;14.924;2023-03-15T11:41:19;99058.31;;;6.28;58.37
63500;BME280;49654;51.142;14.924;2023-03-15T11:43:55;99044.00;;;6.08;61.31
63500;BME280;49654;51.142;14.924;2023-03-15T11:46:27;99050.69;;;5.73;63.31
63500;BME280;49654;51.142;14.924;2023-03-15T11:49:00;99062.31;;;6.23;63.21
63500;BME280;49654;51.142;14.924;2023-03-15T11:51:31;98936.81;;;5.88;61.49
63500;BME280;49654;51.142;14.924;2023-03-15T11:54:05;99088.22;;;7.17;61.29
63500;BME280;49654;51.142;14.924;2023-03-15T11:56:50;98903.66;;;5.49;62.34
63500;BME280;49654;51.142;14.924;2023-03-15T11:59:19;99072.72;;;5.95;62.72
63500;BME280;49654;51.142;14.924;2023-03-15T12:01:48;99058.72;;;5.98;62.64
63500;BME280;49654;51.142;14.924;2023-03-15T12:04:48;99007.84;;;6.00;62.07
63500;BME280;49654;51.142;14.924;2023-03-15T12:07:36;99055.72;;;6.98;59.99
63500;BME280;49654;51.142;14.924;2023-03-15T12:13:16;99054.56;;;8.26;54.88
63500;BME280;49654;51.142;14.924;2023-03-15T12:15:47;99067.00;;;8.47;54.66
63500;BME280;49654;51.142;14.924;2023-03-15T12:18:17;99071.69;;;8.27;54.73
63500;BME280;49654;51.142;14.924;2023-03-15T12:20:50;98992.81;;;7.08;55.52
63500;BME280;49654;51.142;14.924;2023-03-15T12:23:31;99065.78;;;7.60;55.53
63500;BME280;49654;51.142;14.924;2023-03-15T12:26:05;98967.16;;;7.14;56.26
63500;BME280;49654;51.142;14.924;2023-03-15T12:28:38;99009.94;;;8.33;54.52
63500;BME280;49654;51.142;14.924;2023-03-15T12:31:10;99033.91;;;8.98;51.72
63500;BME280;49654;51.142;14.924;2023-03-15T12:33:47;98973.72;;;8.41;51.47
63500;BME280;49654;51.142;14.924;2023-03-15T12:36:20;99020.28;;;8.41;51.97
63500;BME280;49654;51.142;14.924;2023-03-15T12:39:00;99071.03;;;8.09;54.11
63500;BME280;49654;51.142;14.924;2023-03-15T12:41:35;99039.75;;;8.92;53.52
63500;BME280;49654;51.142;14.924;2023-03-15T12:44:23;98966.31;;;8.85;50.56
63500;BME280;49654;51.142;14.924;2023-03-15T12:46:56;99024.53;;;9.68;48.75
63500;BME280;49654;51.142;14.924;2023-03-15T12:49:30;99070.03;;;11.21;45.89
63500;BME280;49654;51.142;14.924;2023-03-15T12:51:59;99073.50;;;10.32;46.33
63500;BME280;49654;51.142;14.924;2023-03-15T12:54:32;99073.97;;;10.73;46.50
63500;BME280;49654;51.142;14.924;2023-03-15T12:57:01;99027.53;;;10.17;46.88
63500;BME280;49654;51.142;14.924;2023-03-15T12:59:35;99073.63;;;11.06;47.07
63500;BME280;49654;51.142;14.924;2023-03-15T13:02:24;99060.47;;;11.94;43.73
63500;BME280;49654;51.142;14.924;2023-03-15T13:05:17;99002.88;;;9.30;47.24
63500;BME280;49654;51.142;14.924;2023-03-15T13:07:56;99075.25;;;8.51;50.57
63500;BME280;49654;51.142;14.924;2023-03-15T13:10:38;99083.88;;;10.09;48.89
63500;BME280;49654;51.142;14.924;2023-03-15T13:13:13;99005.81;;;9.49;46.05
63500;BME280;49654;51.142;14.924;2023-03-15T13:15:57;99035.59;;;7.69;49.18